sensor_id;sensor_type;location;lat;lon;timestamp;pressure;altitude;pressure_sealevel;temperature;humidity
29385;BME280;16367;48.736;9.218;2023-06-22T00:01:34;-23832.16;;;21.10;100.00
29385;BME280;16367;48.736;9.218;2023-06-22T00:03:37;-23827.94;;;20.97;100.00
29385;BME280;16367;48.736;9.218;2023-06-22T00:05:39;-23830.13;;;21.04;100.00
29385;BME280;16367;48.736;9.218;2023-06-22T00:07:42;-23830.28;;;21.04;100.00
29385;BME280;16367;48.736;9.218;2023-06-22T00:09:45;-23824.63;;;20.86;100.00
29385;BME280;16367;48.736;9.218;2023-06-22T00:11:47;-23823.69;;;20.83;100.00
29385;BME280;16367;48.736;9.218;2023-06-22T00:13:50;-23824.31;;;20.85;100.00
29385;BME280;16367;48.736;9.218;2023-06-22T00:15:54;-23825.59;;;20.89;100.00
29385;BME280;16367;48.736;9.218;2023-06-22T00:17:57;-23828.41;;;20.98;100.00
29385;BME280;16367;48.736;9.218;2023-06-22T00:20:00;-23826.53;;;20.92;100.00
29385;BME280;16367;48.736;9.218;2023-06-22T00:22:07;-23827.16;;;20.94;100.00
29385;BME280;16367;48.736;9.218;2023-06-22T00:24:10;-23830.28;;;21.04;100.00
29385;BME280;16367;48.736;9.218;2023-06-22T00:26:13;-23827.94;;;20.97;100.00
29385;BME280;16367;48.736;9.218;2023-06-22T00:28:15;-23828.72;;;20.99;100.00
29385;BME280;16367;48.736;9.218;2023-06-22T00:30:19;-23829.34;;;21.01;100.00
29385;BME280;16367;48.736;9.218;2023-06-22T00:32:23;-23829.66;;;21.02;100.00
29385;BME280;16367;48.736;9.218;2023-06-22T00:34:25;-23827.78;;;20.96;100.00
29385;BME280;16367;48.736;9.218;2023-06-22T00:36:28;-23831.84;;;21.09;100.00
29385;BME280;16367;48.736;9.218;2023-06-22T00:38:31;-23828.56;;;20.99;100.00
29385;BME280;16367;48.736;9.218;2023-06-22T00:40:34;-23827.16;;;20.94;100.00
29385;BME280;16367;48.736;9.218;2023-06-22T00:42:37;-23826.38;;;20.92;100.00
29385;BME280;16367;48.736;9.218;2023-06-22T00:44:39;-23827.16;;;20.94;100.00
29385;BME280;16367;48.736;9.218;2023-06-22T00:46:42;-23828.88;;;21.00;100.00
29385;BME280;16367;48.736;9.218;2023-06-22T00:48:47;-23828.88;;;21.00;100.00
29385;BME280;16367;48.736;9.218;2023-06-22T00:50:49;-23829.50;;;21.02;100.00
29385;BME280;16367;48.736;9.218;2023-06-22T00:52:56;-23826.53;;;20.92;100.00
29385;BME280;16367;48.736;9.218;2023-06-22T00:55:02;-23825.91;;;20.90;100.00
29385;BME280;16367;48.736;9.218;2023-06-22T00:57:05;-23828.41;;;20.98;100.00
29385;BME280;16367;48.736;9.218;2023-06-22T00:59:12;-23829.81;;;21.03;100.00
29385;BME280;16367;48.736;9.218;2023-06-22T01:01:19;-23828.09;;;20.97;100.00
29385;BME280;16367;48.736;9.218;2023-06-22T01:03:25;-23826.53;;;20.92;100.00
29385;BME280;16367;48.736;9.218;2023-06-22T01:05:31;-23830.91;;;21.06;100.00
29385;BME280;16367;48.736;9.218;2023-06-22T01:07:35;-23829.50;;;21.02;100.00
29385;BME280;16367;48.736;9.218;2023-06-22T01:09:44;-23831.53;;;21.08;100.00
29385;BME280;16367;48.736;9.218;2023-06-22T01:11:54;-23828.41;;;20.98;100.00
29385;BME280;16367;48.736;9.218;2023-06-22T01:14:03;-23824.94;;;20.87;100.00
29385;BME280;16367;48.736;9.218;2023-06-22T01:16:12;-23819.16;;;20.68;100.00
29385;BME280;16367;48.736;9.218;2023-06-22T01:18:18;-23820.72;;;20.73;100.00
29385;BME280;16367;48.736;9.218;2023-06-22T01:20:22;-23821.50;;;20.76;100.00
29385;BME280;16367;48.736;9.218;2023-06-22T01:22:30;-23817.44;;;20.63;100.00
29385;BME280;16367;48.736;9.218;2023-06-22T01:24:44;-23813.03;;;20.49;100.00
29385;BME280;16367;48.736;9.218;2023-06-22T01:26:57;-23821.19;;;20.75;100.00
29385;BME280;16367;48.736;9.218;2023-06-22T01:29:06;-23821.34;;;20.75;100.00
29385;BME280;16367;48.736;9.218;2023-06-22T01:31:13;-23819.63;;;20.70;100.00
29385;BME280;16367;48.736;9.218;2023-06-22T01:33:17;-23817.13;;;20.62;100.00
29385;BME280;16367;48.736;9.218;2023-06-22T01:35:20;-23816.81;;;20.61;100.00
29385;BME280;16367;48.736;9.218;2023-06-22T01:37:24;-23819.00;;;20.68;100.00
29385;BME280;16367;48.736;9.218;2023-06-22T01:39:27;-23818.06;;;20.65;100.00
29385;BME280;16367;48.736;9.218;2023-06-22T01:41:33;-23815.53;;;20.57;100.00
29385;BME280;16367;48.736;9.218;2023-06-22T01:43:36;-23818.06;;;20.65;100.00
29385;BME280;16367;48.736;9.218;2023-06-22T01:45:41;-23819.94;;;20.71;100.00
29385;BME280;16367;48.736;9.218;2023-06-22T01:47:44;-23816.47;;;20.60;100.00
29385;BME280;16367;48.736;9.218;2023-06-22T01:49:47;-23821.50;;;20.76;100.00
29385;BME280;16367;48.736;9.218;2023-06-22T01:51:50;-23816.66;;;20.60;100.00
29385;BME280;16367;48.736;9.218;2023-06-22T01:53:56;-23812.25;;;20.46;100.00
29385;BME280;16367;48.736;9.218;2023-06-22T01:55:59;-23816.00;;;20.58;100.00
29385;BME280;16367;48.736;9.218;2023-06-22T01:58:02;-23814.91;;;20.55;100.00
29385;BME280;16367;48.736;9.218;2023-06-22T02:00:08;-23811.63;;;20.44;100.00
29385;BME280;16367;48.736;9.218;2023-06-22T02:02:15;-23809.59;;;20.38;100.00
29385;BME280;16367;48.736;9.218;2023-06-22T02:04:20;-23804.72;;;20.22;100.00
29385;BME280;16367;48.736;9.218;2023-06-22T02:06:27;-23805.03;;;20.23;100.00
29385;BME280;16367;48.736;9.218;2023-06-22T02:08:51;-23803.94;;;20.20;100.00
29385;BME280;16367;48.736;9.218;2023-06-22T02:10:55;-23804.41;;;20.21;100.00
29385;BME280;16367;48.736;9.218;2023-06-22T02:12:59;-23801.09;;;20.11;100.00
29385;BME280;16367;48.736;9.218;2023-06-22T02:15:03;-23797.66;;;19.99;100.00
29385;BME280;16367;48.736;9.218;2023-06-22T02:17:08;-23800.63;;;20.09;100.00
29385;BME280;16367;48.736;9.218;2023-06-22T02:19:13;-23801.41;;;20.12;100.00
29385;BME280;16367;48.736;9.218;2023-06-22T02:21:20;-23797.81;;;20.00;100.00
29385;BME280;16367;48.736;9.218;2023-06-22T02:23:23;-23796.72;;;19.96;100.00
29385;BME280;16367;48.736;9.218;2023-06-22T02:25:26;-23797.19;;;19.98;100.00
29385;BME280;16367;48.736;9.218;2023-06-22T02:27:29;-23795.63;;;19.93;100.00
29385;BME280;16367;48.736;9.218;2023-06-22T02:29:32;-23797.81;;;20.00;100.00
29385;BME280;16367;48.736;9.218;2023-06-22T02:31:35;-23792.00;;;19.81;100.00
29385;BME280;16367;48.736;9.218;2023-06-22T02:33:38;-23792.78;;;19.84;100.00
29385;BME280;16367;48.736;9.218;2023-06-22T02:35:42;-23789.81;;;19.74;100.00
29385;BME280;16367;48.736;9.218;2023-06-22T02:37:49;-23790.13;;;19.75;100.00
29385;BME280;16367;48.736;9.218;2023-06-22T02:39:53;-23789.81;;;19.74;100.00
29385;BME280;16367;48.736;9.218;2023-06-22T02:41:56;-23789.81;;;19.74;100.00
29385;BME280;16367;48.736;9.218;2023-06-22T02:43:58;-23787.28;;;19.66;100.00
29385;BME280;16367;48.736;9.218;2023-06-22T02:46:01;-23787.28;;;19.66;100.00
29385;BME280;16367;48.736;9.218;2023-06-22T02:48:05;-23789.03;;;19.72;100.00
29385;BME280;16367;48.736;9.218;2023-06-22T02:50:08;-23787.13;;;19.66;100.00
29385;BME280;16367;48.736;9.218;2023-06-22T02:52:12;-23789.19;;;19.72;100.00
29385;BME280;16367;48.736;9.218;2023-06-22T02:54:15;-23790.13;;;19.75;100.00
29385;BME280;16367;48.736;9.218;2023-06-22T02:56:19;-23790.13;;;19.75;100.00
29385;BME280;16367;48.736;9.218;2023-06-22T02:58:26;-23792.16;;;19.82;100.00
29385;BME280;16367;48.736;9.218;2023-06-22T03:00:29;-23786.66;;;19.64;100.00
29385;BME280;16367;48.736;9.218;2023-06-22T03:02:32;-23785.41;;;19.60;100.00
29385;BME280;16367;48.736;9.218;2023-06-22T03:04:36;-23784.63;;;19.58;100.00
29385;BME280;16367;48.736;9.218;2023-06-22T03:06:38;-23781.19;;;19.47;100.00
29385;BME280;16367;48.736;9.218;2023-06-22T03:08:43;-23780.53;;;19.45;100.00
29385;BME280;16367;48.736;9.218;2023-06-22T03:10:46;-23782.13;;;19.50;100.00
29385;BME280;16367;48.736;9.218;2023-06-22T03:12:49;-23782.59;;;19.51;100.00
29385;BME280;16367;48.736;9.218;2023-06-22T03:14:52;-23781.50;;;19.48;100.00
29385;BME280;16367;48.736;9.218;2023-06-22T03:16:54;-23781.00;;;19.46;100.00
29385;BME280;16367;48.736;9.218;2023-06-22T03:19:04;-23780.53;;;19.45;100.00
29385;BME280;16367;48.736;9.218;2023-06-22T03:21:07;-23782.28;;;19.50;100.00
29385;BME280;16367;48.736;9.218;2023-06-22T03:23:10;-23781.97;;;19.49;100.00
29385;BME280;16367;48.736;9.218;2023-06-22T03:25:14;-23782.91;;;19.52;100.00
29385;BME280;16367;48.736;9.218;2023-06-22T03:27:17;-23784.63;;;19.58;100.00
29385;BME280;16367;48.736;9.218;2023-06-22T03:29:20;-23784.63;;;19.58;100.00
29385;BME280;16367;48.736;9.218;2023-06-22T03:31:23;-23786.03;;;19.62;100.00
29385;BME280;16367;48.736;9.218;2023-06-22T03:33:25;-23784.78;;;19.58;100.00
29385;BME280;16367;48.736;9.218;2023-06-22T03:35:28;-23783.84;;;19.55;100.00
29385;BME280;16367;48.736;9.218;2023-06-22T03:37:31;-23788.41;;;19.70;100.00
29385;BME280;16367;48.736;9.218;2023-06-22T03:39:33;-23786.50;;;19.64;100.00
29385;BME280;16367;48.736;9.218;2023-06-22T03:41:38;-23784.47;;;19.57;100.00
29385;BME280;16367;48.736;9.218;2023-06-22T03:43:43;-23783.53;;;19.54;100.00
29385;BME280;16367;48.736;9.218;2023-06-22T03:45:46;-23784.78;;;19.58;100.00
29385;BME280;16367;48.736;9.218;2023-06-22T03:47:49;-23786.03;;;19.62;100.00
29385;BME280;16367;48.736;9.218;2023-06-22T03:49:52;-23784.47;;;19.57;100.00
29385;BME280;16367;48.736;9.218;2023-06-22T03:51:56;-23784.16;;;19.56;100.00
29385;BME280;16367;48.736;9.218;2023-06-22T03:53:59;-23782.59;;;19.51;100.00
29385;BME280;16367;48.736;9.218;2023-06-22T03:56:02;-23780.22;;;19.44;100.00
29385;BME280;16367;48.736;9.218;2023-06-22T03:58:09;-23781.00;;;19.46;100.00
29385;BME280;16367;48.736;9.218;2023-06-22T04:00:13;-23783.53;;;19.54;100.00
29385;BME280;16367;48.736;9.218;2023-06-22T04:02:17;-23785.09;;;19.59;100.00
29385;BME280;16367;48.736;9.218;2023-06-22T04:04:20;-23788.56;;;19.70;100.00
29385;BME280;16367;48.736;9.218;2023-06-22T04:06:23;-23793.88;;;19.87;100.00
29385;BME280;16367;48.736;9.218;2023-06-22T04:08:25;-23791.69;;;19.80;100.00
29385;BME280;16367;48.736;9.218;2023-06-22T04:10:28;-23797.34;;;19.98;100.00
29385;BME280;16367;48.736;9.218;2023-06-22T04:12:32;-23805.03;;;20.23;100.00
29385;BME280;16367;48.736;9.218;2023-06-22T04:14:36;-23802.69;;;20.16;100.00
29385;BME280;16367;48.736;9.218;2023-06-22T04:16:39;-23807.38;;;20.31;100.00
29385;BME280;16367;48.736;9.218;2023-06-22T04:18:42;-23816.81;;;20.61;100.00
29385;BME280;16367;48.736;9.218;2023-06-22T04:20:44;-23823.69;;;20.83;100.00
29385;BME280;16367;48.736;9.218;2023-06-22T04:22:48;-23821.19;;;20.75;100.00
29385;BME280;16367;48.736;9.218;2023-06-22T04:24:51;-23836.41;;;21.24;100.00
29385;BME280;16367;48.736;9.218;2023-06-22T04:26:54;-23851.59;;;21.73;100.00
29385;BME280;16367;48.736;9.218;2023-06-22T04:28:57;-23851.91;;;21.74;100.00
29385;BME280;16367;48.736;9.218;2023-06-22T04:31:01;-23844.09;;;21.48;100.00
29385;BME280;16367;48.736;9.218;2023-06-22T04:33:04;-23838.91;;;21.32;100.00
29385;BME280;16367;48.736;9.218;2023-06-22T04:35:07;-23845.66;;;21.53;100.00
29385;BME280;16367;48.736;9.218;2023-06-22T04:37:10;-23862.09;;;22.06;100.00
29385;BME280;16367;48.736;9.218;2023-06-22T04:39:16;-23860.38;;;22.01;100.00
29385;BME280;16367;48.736;9.218;2023-06-22T04:41:20;-23836.88;;;21.25;100.00
29385;BME280;16367;48.736;9.218;2023-06-22T04:43:25;-23865.06;;;22.16;100.00
29385;BME280;16367;48.736;9.218;2023-06-22T04:45:32;-23866.63;;;22.21;100.00
29385;BME280;16367;48.736;9.218;2023-06-22T04:47:36;-23871.66;;;22.37;100.00
29385;BME280;16367;48.736;9.218;2023-06-22T04:49:41;-23861.31;;;22.04;100.00
29385;BME280;16367;48.736;9.218;2023-06-22T04:51:44;-23870.09;;;22.32;100.00
29385;BME280;16367;48.736;9.218;2023-06-22T04:53:47;-23871.34;;;22.36;100.00
29385;BME280;16367;48.736;9.218;2023-06-22T04:55:50;-23860.69;;;22.02;100.00
29385;BME280;16367;48.736;9.218;2023-06-22T04:57:54;-23861.47;;;22.04;100.00
29385;BME280;16367;48.736;9.218;2023-06-22T04:59:59;-23866.31;;;22.20;100.00
29385;BME280;16367;48.736;9.218;2023-06-22T05:02:12;-23882.91;;;22.73;98.76
29385;BME280;16367;48.736;9.218;2023-06-22T05:04:17;-23878.53;;;22.59;98.48
29385;BME280;16367;48.736;9.218;2023-06-22T05:06:20;-23890.44;;;22.97;97.28
29385;BME280;16367;48.736;9.218;2023-06-22T05:08:22;-23894.50;;;23.11;94.24
29385;BME280;16367;48.736;9.218;2023-06-22T05:10:28;-23886.19;;;22.84;97.33
29385;BME280;16367;48.736;9.218;2023-06-22T05:12:31;-23883.53;;;22.75;97.67
29385;BME280;16367;48.736;9.218;2023-06-22T05:14:34;-23884.66;;;22.79;98.96
29385;BME280;16367;48.736;9.218;2023-06-22T05:16:37;-23875.09;;;22.48;100.00
29385;BME280;16367;48.736;9.218;2023-06-22T05:18:40;-23879.47;;;22.62;95.56
29385;BME280;16367;48.736;9.218;2023-06-22T05:20:46;-23887.00;;;22.86;96.59
29385;BME280;16367;48.736;9.218;2023-06-22T05:22:49;-23876.66;;;22.53;99.53
29385;BME280;16367;48.736;9.218;2023-06-22T05:24:51;-23890.59;;;22.98;96.60
29385;BME280;16367;48.736;9.218;2023-06-22T05:26:57;-23888.56;;;22.91;95.06
29385;BME280;16367;48.736;9.218;2023-06-22T05:29:01;-23876.50;;;22.53;98.93
29385;BME280;16367;48.736;9.218;2023-06-22T05:31:04;-23894.97;;;23.12;95.16
29385;BME280;16367;48.736;9.218;2023-06-22T05:33:07;-23905.91;;;23.47;91.46
29385;BME280;16367;48.736;9.218;2023-06-22T05:35:10;-23911.38;;;23.65;90.36
29385;BME280;16367;48.736;9.218;2023-06-22T05:37:17;-23912.31;;;23.68;91.40
29385;BME280;16367;48.736;9.218;2023-06-22T05:39:20;-23919.19;;;23.90;88.10
29385;BME280;16367;48.736;9.218;2023-06-22T05:41:23;-23916.84;;;23.83;88.96
29385;BME280;16367;48.736;9.218;2023-06-22T05:43:25;-23924.50;;;24.07;87.62
29385;BME280;16367;48.736;9.218;2023-06-22T05:45:28;-23919.81;;;23.92;87.87
29385;BME280;16367;48.736;9.218;2023-06-22T05:47:31;-23903.88;;;23.41;90.66
29385;BME280;16367;48.736;9.218;2023-06-22T05:49:33;-23924.50;;;24.07;87.56
29385;BME280;16367;48.736;9.218;2023-06-22T05:51:36;-23914.81;;;23.76;89.30
29385;BME280;16367;48.736;9.218;2023-06-22T05:53:40;-23925.28;;;24.10;88.25
29385;BME280;16367;48.736;9.218;2023-06-22T05:55:43;-23902.78;;;23.37;92.42
29385;BME280;16367;48.736;9.218;2023-06-22T05:57:46;-23909.97;;;23.60;92.38
29385;BME280;16367;48.736;9.218;2023-06-22T05:59:49;-23928.09;;;24.19;85.68
29385;BME280;16367;48.736;9.218;2023-06-22T06:01:51;-23932.00;;;24.31;85.12
29385;BME280;16367;48.736;9.218;2023-06-22T06:03:54;-23916.53;;;23.82;85.78
29385;BME280;16367;48.736;9.218;2023-06-22T06:05:57;-23933.25;;;24.35;82.71
29385;BME280;16367;48.736;9.218;2023-06-22T06:08:00;-23915.28;;;23.78;84.67
29385;BME280;16367;48.736;9.218;2023-06-22T06:10:06;-23931.38;;;24.29;83.35
29385;BME280;16367;48.736;9.218;2023-06-22T06:12:09;-23940.75;;;24.60;80.83
29385;BME280;16367;48.736;9.218;2023-06-22T06:14:12;-23930.75;;;24.27;83.06
29385;BME280;16367;48.736;9.218;2023-06-22T06:16:15;-23943.56;;;24.69;81.25
29385;BME280;16367;48.736;9.218;2023-06-22T06:18:17;-23926.38;;;24.13;83.97
29385;BME280;16367;48.736;9.218;2023-06-22T06:20:21;-23935.75;;;24.43;84.31
29385;BME280;16367;48.736;9.218;2023-06-22T06:22:25;-23929.81;;;24.24;82.11
29385;BME280;16367;48.736;9.218;2023-06-22T06:24:28;-23912.94;;;23.70;85.57
29385;BME280;16367;48.736;9.218;2023-06-22T06:26:32;-23930.75;;;24.27;82.73
29385;BME280;16367;48.736;9.218;2023-06-22T06:28:36;-23950.75;;;24.92;81.94
29385;BME280;16367;48.736;9.218;2023-06-22T06:30:38;-23946.84;;;24.79;81.08
29385;BME280;16367;48.736;9.218;2023-06-22T06:32:43;-23957.47;;;25.13;77.71
29385;BME280;16367;48.736;9.218;2023-06-22T06:34:47;-23977.75;;;25.79;75.25
29385;BME280;16367;48.736;9.218;2023-06-22T06:36:49;-23954.81;;;25.05;78.53
29385;BME280;16367;48.736;9.218;2023-06-22T06:38:52;-23970.72;;;25.56;76.26
29385;BME280;16367;48.736;9.218;2023-06-22T06:40:55;-23991.00;;;26.22;72.34
29385;BME280;16367;48.736;9.218;2023-06-22T06:42:59;-24011.25;;;26.87;69.62
29385;BME280;16367;48.736;9.218;2023-06-22T06:45:02;-23981.31;;;25.91;71.89
29385;BME280;16367;48.736;9.218;2023-06-22T06:47:05;-23987.41;;;26.10;70.64
29385;BME280;16367;48.736;9.218;2023-06-22T06:49:08;-23992.25;;;26.26;71.49
29385;BME280;16367;48.736;9.218;2023-06-22T06:51:11;-23986.31;;;26.07;72.97
29385;BME280;16367;48.736;9.218;2023-06-22T06:53:14;-23987.25;;;26.10;70.55
29385;BME280;16367;48.736;9.218;2023-06-22T06:55:17;-23992.25;;;26.26;70.29
29385;BME280;16367;48.736;9.218;2023-06-22T06:57:21;-23976.97;;;25.76;71.52
29385;BME280;16367;48.736;9.218;2023-06-22T06:59:26;-23986.63;;;26.08;68.45
29385;BME280;16367;48.736;9.218;2023-06-22T07:01:30;-23995.97;;;26.38;68.66
29385;BME280;16367;48.736;9.218;2023-06-22T07:03:35;-24002.22;;;26.58;66.96
29385;BME280;16367;48.736;9.218;2023-06-22T07:05:38;-24028.69;;;27.44;65.02
29385;BME280;16367;48.736;9.218;2023-06-22T07:07:41;-24020.91;;;27.18;64.01
29385;BME280;16367;48.736;9.218;2023-06-22T07:09:44;-24021.22;;;27.19;66.01
29385;BME280;16367;48.736;9.218;2023-06-22T07:11:47;-24039.56;;;27.79;64.19
29385;BME280;16367;48.736;9.218;2023-06-22T07:13:50;-24046.09;;;28.00;60.54
29385;BME280;16367;48.736;9.218;2023-06-22T07:15:54;-24020.75;;;27.18;65.10
29385;BME280;16367;48.736;9.218;2023-06-22T07:17:56;-24005.47;;;26.69;66.42
29385;BME280;16367;48.736;9.218;2023-06-22T07:20:00;-24027.44;;;27.40;65.53
29385;BME280;16367;48.736;9.218;2023-06-22T07:22:03;-24023.69;;;27.27;63.76
29385;BME280;16367;48.736;9.218;2023-06-22T07:24:06;-24020.28;;;27.16;65.83
29385;BME280;16367;48.736;9.218;2023-06-22T07:26:09;-24049.84;;;28.12;60.75
29385;BME280;16367;48.736;9.218;2023-06-22T07:28:14;-24032.88;;;27.57;63.42
29385;BME280;16367;48.736;9.218;2023-06-22T07:30:16;-24052.63;;;28.21;60.75
29385;BME280;16367;48.736;9.218;2023-06-22T07:32:20;-24045.81;;;27.99;62.47
29385;BME280;16367;48.736;9.218;2023-06-22T07:34:23;-24042.06;;;27.87;61.42
29385;BME280;16367;48.736;9.218;2023-06-22T07:36:26;-24052.94;;;28.22;60.64
29385;BME280;16367;48.736;9.218;2023-06-22T07:38:30;-24061.50;;;28.50;59.23
29385;BME280;16367;48.736;9.218;2023-06-22T07:40:33;-24067.25;;;28.68;59.10
29385;BME280;16367;48.736;9.218;2023-06-22T07:42:36;-24076.56;;;28.99;58.24
29385;BME280;16367;48.736;9.218;2023-06-22T07:44:39;-24029.31;;;27.46;63.02
29385;BME280;16367;48.736;9.218;2023-06-22T07:46:42;-24046.41;;;28.01;61.42
29385;BME280;16367;48.736;9.218;2023-06-22T07:48:46;-24053.41;;;28.24;58.84
29385;BME280;16367;48.736;9.218;2023-06-22T07:50:49;-24054.81;;;28.28;59.35
29385;BME280;16367;48.736;9.218;2023-06-22T07:52:52;-24069.44;;;28.75;58.72
29385;BME280;16367;48.736;9.218;2023-06-22T07:54:55;-24095.81;;;29.61;55.57
29385;BME280;16367;48.736;9.218;2023-06-22T07:56:57;-24076.25;;;28.98;55.98
29385;BME280;16367;48.736;9.218;2023-06-22T07:59:00;-24073.16;;;28.88;56.70
29385;BME280;16367;48.736;9.218;2023-06-22T08:01:05;-24073.78;;;28.90;56.56
29385;BME280;16367;48.736;9.218;2023-06-22T08:03:11;-24082.47;;;29.18;56.24
29385;BME280;16367;48.736;9.218;2023-06-22T08:05:15;-24110.88;;;30.10;53.58
29385;BME280;16367;48.736;9.218;2023-06-22T08:07:23;-24126.22;;;30.60;52.18
29385;BME280;16367;48.736;9.218;2023-06-22T08:09:27;-24153.81;;;31.49;50.13
29385;BME280;16367;48.736;9.218;2023-06-22T08:11:30;-24133.97;;;30.85;50.72
29385;BME280;16367;48.736;9.218;2023-06-22T08:13:33;-24152.09;;;31.44;49.96
29385;BME280;16367;48.736;9.218;2023-06-22T08:15:36;-24152.56;;;31.45;50.53
29385;BME280;16367;48.736;9.218;2023-06-22T08:17:39;-24122.19;;;30.47;51.91
29385;BME280;16367;48.736;9.218;2023-06-22T08:19:42;-24105.44;;;29.92;53.41
29385;BME280;16367;48.736;9.218;2023-06-22T08:21:46;-24064.78;;;28.60;56.95
29385;BME280;16367;48.736;9.218;2023-06-22T08:23:49;-24044.69;;;27.95;59.05
29385;BME280;16367;48.736;9.218;2023-06-22T08:25:52;-24074.09;;;28.91;58.16
29385;BME280;16367;48.736;9.218;2023-06-22T08:27:54;-24069.72;;;28.76;59.01
29385;BME280;16367;48.736;9.218;2023-06-22T08:29:57;-24063.50;;;28.56;58.27
29385;BME280;16367;48.736;9.218;2023-06-22T08:32:00;-24056.22;;;28.33;60.12
29385;BME280;16367;48.736;9.218;2023-06-22T08:34:03;-24054.03;;;28.26;60.47
29385;BME280;16367;48.736;9.218;2023-06-22T08:36:06;-24094.88;;;29.58;55.79
29385;BME280;16367;48.736;9.218;2023-06-22T08:38:11;-24090.84;;;29.45;56.72
29385;BME280;16367;48.736;9.218;2023-06-22T08:40:17;-24099.53;;;29.73;55.91
29385;BME280;16367;48.736;9.218;2023-06-22T08:42:21;-24116.91;;;30.30;54.52
29385;BME280;16367;48.736;9.218;2023-06-22T08:44:25;-24095.81;;;29.61;56.44
29385;BME280;16367;48.736;9.218;2023-06-22T08:46:27;-24105.75;;;29.93;54.31
29385;BME280;16367;48.736;9.218;2023-06-22T08:48:34;-24101.09;;;29.78;54.43
29385;BME280;16367;48.736;9.218;2023-06-22T08:50:37;-24090.22;;;29.43;56.13
29385;BME280;16367;48.736;9.218;2023-06-22T08:52:42;-24087.59;;;29.34;58.00
29385;BME280;16367;48.736;9.218;2023-06-22T08:54:46;-24095.81;;;29.61;55.84
29385;BME280;16367;48.736;9.218;2023-06-22T08:56:49;-24096.13;;;29.62;55.57
29385;BME280;16367;48.736;9.218;2023-06-22T08:58:52;-24074.88;;;28.93;57.70
29385;BME280;16367;48.736;9.218;2023-06-22T09:00:58;-24108.84;;;30.03;55.83
29385;BME280;16367;48.736;9.218;2023-06-22T09:03:02;-24135.22;;;30.89;53.18
29385;BME280;16367;48.736;9.218;2023-06-22T09:05:06;-24178.09;;;32.28;50.04
29385;BME280;16367;48.736;9.218;2023-06-22T09:07:09;-24124.38;;;30.54;52.58
29385;BME280;16367;48.736;9.218;2023-06-22T09:09:13;-24153.66;;;31.49;50.58
29385;BME280;16367;48.736;9.218;2023-06-22T09:11:17;-24138.00;;;30.98;52.80
29385;BME280;16367;48.736;9.218;2023-06-22T09:13:20;-24133.34;;;30.83;53.59
29385;BME280;16367;48.736;9.218;2023-06-22T09:15:23;-24149.94;;;31.37;51.22
29385;BME280;16367;48.736;9.218;2023-06-22T09:17:26;-24097.06;;;29.65;55.31
29385;BME280;16367;48.736;9.218;2023-06-22T09:19:29;-24131.81;;;30.78;53.21
29385;BME280;16367;48.736;9.218;2023-06-22T09:21:32;-24124.84;;;30.55;53.34
29385;BME280;16367;48.736;9.218;2023-06-22T09:23:35;-24112.88;;;30.16;54.03
29385;BME280;16367;48.736;9.218;2023-06-22T09:25:38;-24180.41;;;32.36;49.64
29385;BME280;16367;48.736;9.218;2023-06-22T09:27:43;-24156.59;;;31.58;51.09
29385;BME280;16367;48.736;9.218;2023-06-22T09:29:45;-24155.66;;;31.55;52.02
29385;BME280;16367;48.736;9.218;2023-06-22T09:31:48;-24177.16;;;32.25;48.88
29385;BME280;16367;48.736;9.218;2023-06-22T09:33:52;-24166.19;;;31.90;50.50
29385;BME280;16367;48.736;9.218;2023-06-22T09:35:55;-24197.41;;;32.91;49.22
29385;BME280;16367;48.736;9.218;2023-06-22T09:37:58;-24160.63;;;31.72;49.24
29385;BME280;16367;48.736;9.218;2023-06-22T09:40:01;-24181.34;;;32.39;49.29
29385;BME280;16367;48.736;9.218;2023-06-22T09:42:08;-24204.69;;;33.15;47.31
29385;BME280;16367;48.736;9.218;2023-06-22T09:44:12;-24216.13;;;33.52;47.68
29385;BME280;16367;48.736;9.218;2023-06-22T09:46:15;-24188.16;;;32.61;47.43
29385;BME280;16367;48.736;9.218;2023-06-22T09:48:18;-24205.44;;;33.18;47.05
29385;BME280;16367;48.736;9.218;2023-06-22T09:50:21;-24177.63;;;32.27;47.09
29385;BME280;16367;48.736;9.218;2023-06-22T09:52:24;-24166.34;;;31.90;49.04
29385;BME280;16367;48.736;9.218;2023-06-22T09:54:43;-24168.34;;;31.97;48.94
29385;BME280;16367;48.736;9.218;2023-06-22T09:56:46;-24151.94;;;31.43;51.35
29385;BME280;16367;48.736;9.218;2023-06-22T09:58:49;-24151.00;;;31.40;52.08
29385;BME280;16367;48.736;9.218;2023-06-22T10:00:56;-24220.13;;;33.65;46.58
29385;BME280;16367;48.736;9.218;2023-06-22T10:02:59;-24225.84;;;33.84;45.20
29385;BME280;16367;48.736;9.218;2023-06-22T10:05:02;-24209.31;;;33.30;46.48
29385;BME280;16367;48.736;9.218;2023-06-22T10:07:06;-24223.53;;;33.76;46.63
29385;BME280;16367;48.736;9.218;2023-06-22T10:09:09;-24178.88;;;32.31;47.72
29385;BME280;16367;48.736;9.218;2023-06-22T10:11:11;-24145.44;;;31.22;50.42
29385;BME280;16367;48.736;9.218;2023-06-22T10:13:14;-24127.16;;;30.63;52.15
29385;BME280;16367;48.736;9.218;2023-06-22T10:15:17;-24145.13;;;31.21;51.12
29385;BME280;16367;48.736;9.218;2023-06-22T10:17:22;-24126.53;;;30.61;53.04
29385;BME280;16367;48.736;9.218;2023-06-22T10:19:24;-24119.25;;;30.37;53.89
29385;BME280;16367;48.736;9.218;2023-06-22T10:21:27;-24110.72;;;30.09;55.33
29385;BME280;16367;48.736;9.218;2023-06-22T10:23:30;-24118.47;;;30.35;54.69
29385;BME280;16367;48.736;9.218;2023-06-22T10:25:33;-24130.41;;;30.73;53.85
29385;BME280;16367;48.736;9.218;2023-06-22T10:27:36;-24151.63;;;31.42;53.05
29385;BME280;16367;48.736;9.218;2023-06-22T10:29:41;-24132.41;;;30.80;52.46
29385;BME280;16367;48.736;9.218;2023-06-22T10:31:44;-24123.44;;;30.51;52.87
29385;BME280;16367;48.736;9.218;2023-06-22T10:33:48;-24117.84;;;30.33;53.74
29385;BME280;16367;48.736;9.218;2023-06-22T10:35:51;-24128.38;;;30.67;52.90
29385;BME280;16367;48.736;9.218;2023-06-22T10:37:54;-24136.16;;;30.92;52.65
29385;BME280;16367;48.736;9.218;2023-06-22T10:39:57;-24139.56;;;31.03;52.90
29385;BME280;16367;48.736;9.218;2023-06-22T10:42:00;-24133.03;;;30.82;53.50
29385;BME280;16367;48.736;9.218;2023-06-22T10:44:03;-24122.19;;;30.47;53.96